createdAt,value
2024-01-18T00:00:04.640Z,4.80
2024-01-18T00:01:10.325Z,5.10
2024-01-18T00:02:12.585Z,5.10
2024-01-18T00:03:15.802Z,5.28
2024-01-18T00:04:18.581Z,5.97
2024-01-18T00:05:20.933Z,6.82
2024-01-18T00:06:23.196Z,6.90
2024-01-18T00:07:25.591Z,7.75
2024-01-18T00:08:27.876Z,7.85
2024-01-18T00:09:30.192Z,8.40
2024-01-18T00:10:32.842Z,8.25
2024-01-18T00:11:35.046Z,9.55
2024-01-18T00:12:38.233Z,9.30
2024-01-18T00:13:40.549Z,9.18
2024-01-18T00:14:42.738Z,8.93
2024-01-18T00:15:45.182Z,9.10
2024-01-18T00:16:47.500Z,8.90
2024-01-18T00:17:50.050Z,9.15
2024-01-18T00:18:52.699Z,9.50
2024-01-18T00:19:55.446Z,9.73
2024-01-18T00:20:57.762Z,9.88
2024-01-18T00:22:00.237Z,9.98
2024-01-18T00:23:02.491Z,9.35
2024-01-18T00:24:05.130Z,9.93
2024-01-18T00:25:08.278Z,10.05
2024-01-18T00:26:10.592Z,9.02
2024-01-18T00:27:13.280Z,9.43
2024-01-18T00:28:15.865Z,9.85
2024-01-18T00:29:18.371Z,10.05
2024-01-18T00:30:20.694Z,9.32
2024-01-18T00:31:22.962Z,10.07
2024-01-18T00:32:27.255Z,9.68
2024-01-18T00:33:29.678Z,9.88
2024-01-18T00:34:31.966Z,10.20
2024-01-18T00:35:34.345Z,9.15
2024-01-18T00:36:36.661Z,8.48
2024-01-18T00:37:38.884Z,7.30
2024-01-18T00:38:41.073Z,6.80
2024-01-18T00:39:43.952Z,6.95
2024-01-18T00:40:46.232Z,6.78
2024-01-18T00:41:49.156Z,6.03
2024-01-18T00:42:51.395Z,5.95
2024-01-18T00:43:53.592Z,5.40
2024-01-18T00:44:55.837Z,5.20
2024-01-18T00:46:03.294Z,4.90
2024-01-18T00:47:05.536Z,4.15
2024-01-18T00:48:08.358Z,4.30
2024-01-18T00:49:10.978Z,3.40
2024-01-18T00:50:13.270Z,4.03
2024-01-18T00:51:15.635Z,3.38
2024-01-18T00:52:17.935Z,3.30
2024-01-18T00:53:21.287Z,3.28
2024-01-18T00:54:24.872Z,3.60
2024-01-18T00:55:27.117Z,3.20
2024-01-18T00:56:29.359Z,2.75
2024-01-18T00:57:31.791Z,2.60
2024-01-18T00:58:34.082Z,2.40
2024-01-18T00:59:36.324Z,2.58
2024-01-18T01:00:38.717Z,2.58
2024-01-18T01:01:41.194Z,2.38
2024-01-18T01:02:43.452Z,2.63
2024-01-18T01:03:45.801Z,3.10
2024-01-18T01:04:48.046Z,2.75
2024-01-18T01:05:50.438Z,3.10
2024-01-18T01:06:52.692Z,2.65
2024-01-18T01:07:55.028Z,2.60
2024-01-18T01:08:57.306Z,2.90
2024-01-18T01:09:59.538Z,3.13
2024-01-18T01:11:04.911Z,3.40
2024-01-18T01:12:07.197Z,4.13
2024-01-18T01:13:10.621Z,3.72
2024-01-18T01:14:12.905Z,4.05
2024-01-18T01:15:15.331Z,3.78
2024-01-18T01:16:17.826Z,3.20
2024-01-18T01:17:20.065Z,3.42
2024-01-18T01:18:22.411Z,2.78
2024-01-18T01:19:24.718Z,2.60
2024-01-18T01:20:26.991Z,2.83
2024-01-18T01:21:30.025Z,3.67
2024-01-18T01:22:32.621Z,3.80
2024-01-18T01:23:39.658Z,3.65
2024-01-18T01:24:42.022Z,3.92
2024-01-18T01:25:44.244Z,3.57
2024-01-18T01:26:46.423Z,2.58
2024-01-18T01:27:49.461Z,3.03
2024-01-18T01:28:51.857Z,2.65
2024-01-18T01:29:54.130Z,3.05
2024-01-18T01:30:56.350Z,2.85
2024-01-18T01:31:58.572Z,2.65
2024-01-18T01:33:01.025Z,2.80
2024-01-18T01:34:03.526Z,3.65
2024-01-18T01:35:06.750Z,4.00
2024-01-18T01:36:09.386Z,4.03
2024-01-18T01:37:12.409Z,3.50
2024-01-18T01:38:17.208Z,3.25
2024-01-18T01:39:19.991Z,2.90
2024-01-18T01:40:22.335Z,2.78
2024-01-18T01:41:24.697Z,2.22
2024-01-18T01:42:27.165Z,2.92
2024-01-18T01:43:29.660Z,2.50
2024-01-18T01:44:31.906Z,2.40
2024-01-18T01:45:34.406Z,2.70
2024-01-18T01:46:36.718Z,2.28
2024-01-18T01:47:39.716Z,2.35
2024-01-18T01:48:42.137Z,3.33
2024-01-18T01:49:44.591Z,1.95
2024-01-18T01:50:49.835Z,2.60
2024-01-18T01:51:52.583Z,2.28
2024-01-18T01:52:55.663Z,2.40
2024-01-18T01:53:58.420Z,2.35
2024-01-18T01:55:01.270Z,2.75
2024-01-18T01:56:04.053Z,3.25
2024-01-18T01:57:07.073Z,2.47
2024-01-18T01:58:12.546Z,2.00
2024-01-18T01:59:17.382Z,3.13
2024-01-18T02:00:19.737Z,2.90
2024-01-18T02:01:21.968Z,2.58
2024-01-18T02:02:24.594Z,2.50
2024-01-18T02:03:26.925Z,2.70
2024-01-18T02:04:30.730Z,2.40
2024-01-18T02:05:33.101Z,2.10
2024-01-18T02:06:37.573Z,2.03
2024-01-18T02:07:40.111Z,3.45
2024-01-18T02:08:42.654Z,2.30
2024-01-18T02:09:45.235Z,2.30
2024-01-18T02:10:48.177Z,2.38
2024-01-18T02:11:50.469Z,2.47
2024-01-18T02:12:53.137Z,2.70
2024-01-18T02:13:58.260Z,3.97
2024-01-18T02:15:00.851Z,2.17
2024-01-18T02:16:03.800Z,2.50
2024-01-18T02:17:07.518Z,2.33
2024-01-18T02:18:09.943Z,2.40
2024-01-18T02:19:12.452Z,2.30
2024-01-18T02:20:14.950Z,2.17
2024-01-18T02:21:17.234Z,2.45
2024-01-18T02:22:21.299Z,2.15
2024-01-18T02:23:23.655Z,2.50
2024-01-18T02:24:53.728Z,2.22
2024-01-18T02:25:55.958Z,2.40
2024-01-18T02:27:01.152Z,2.67
2024-01-18T02:28:03.666Z,2.60
2024-01-18T02:29:05.847Z,2.60
2024-01-18T02:30:08.822Z,3.50
2024-01-18T02:31:11.035Z,2.75
2024-01-18T02:32:13.232Z,2.10
2024-01-18T02:33:15.635Z,3.95
2024-01-18T02:34:19.262Z,3.80
2024-01-18T02:35:21.758Z,3.30
2024-01-18T02:36:24.379Z,3.55
2024-01-18T02:37:26.646Z,4.20
2024-01-18T02:38:29.096Z,3.25
2024-01-18T02:39:31.502Z,3.10
2024-01-18T02:40:33.880Z,3.10
2024-01-18T02:41:36.467Z,3.40
2024-01-18T02:42:38.804Z,4.20
2024-01-18T02:43:41.981Z,3.22
2024-01-18T02:44:46.182Z,2.95
2024-01-18T02:45:48.433Z,2.60
2024-01-18T02:46:50.700Z,2.80
2024-01-18T02:47:52.978Z,2.67
2024-01-18T02:48:55.282Z,2.53
2024-01-18T02:49:57.981Z,4.30
2024-01-18T02:51:00.286Z,3.63
2024-01-18T02:52:02.587Z,3.47
2024-01-18T02:53:04.822Z,3.13
2024-01-18T02:54:07.017Z,3.20
2024-01-18T02:55:09.423Z,2.92
2024-01-18T02:56:11.847Z,3.00
2024-01-18T02:57:14.132Z,3.10
2024-01-18T02:58:17.431Z,2.95
2024-01-18T02:59:19.895Z,2.75
2024-01-18T03:02:09.653Z,2.90
2024-01-18T03:03:12.083Z,3.70
2024-01-18T03:04:14.334Z,4.63
2024-01-18T03:05:16.687Z,5.03
2024-01-18T03:06:18.948Z,4.60
2024-01-18T03:07:21.163Z,3.50
2024-01-18T03:08:23.440Z,3.53
2024-01-18T03:09:25.874Z,4.20
2024-01-18T03:10:28.118Z,4.18
2024-01-18T03:11:30.347Z,3.25
2024-01-18T03:12:35.894Z,3.25
2024-01-18T03:13:38.214Z,3.17
2024-01-18T03:14:40.457Z,4.18
2024-01-18T03:15:42.938Z,3.53
2024-01-18T03:16:45.158Z,3.60
2024-01-18T03:17:47.606Z,3.42
2024-01-18T03:18:49.989Z,3.83
2024-01-18T03:19:52.411Z,3.47
2024-01-18T03:20:54.874Z,3.47
2024-01-18T03:21:59.254Z,4.22
2024-01-18T03:23:01.598Z,3.80
2024-01-18T03:24:04.034Z,3.72
2024-01-18T03:25:06.448Z,3.67
2024-01-18T03:26:09.517Z,6.35
2024-01-18T03:27:11.825Z,4.93
2024-01-18T03:28:14.129Z,7.88
2024-01-18T03:29:16.443Z,5.57
2024-01-18T03:30:18.932Z,4.75
2024-01-18T03:31:21.102Z,5.00
2024-01-18T03:32:23.856Z,5.10
2024-01-18T03:33:26.332Z,6.28
2024-01-18T03:34:28.736Z,8.60
2024-01-18T03:35:31.014Z,6.55
2024-01-18T03:36:33.266Z,6.75
2024-01-18T03:37:35.796Z,4.30
2024-01-18T03:38:38.052Z,4.82
2024-01-18T03:39:40.369Z,4.53
2024-01-18T03:40:42.657Z,6.00
2024-01-18T03:41:44.888Z,5.10
2024-01-18T03:42:47.169Z,5.53
2024-01-18T03:43:49.976Z,7.95
2024-01-18T03:44:52.221Z,5.20
2024-01-18T03:45:54.430Z,4.68
2024-01-18T03:46:56.677Z,5.70
2024-01-18T03:47:58.947Z,6.15
2024-01-18T03:49:01.321Z,7.10
2024-01-18T03:50:04.473Z,7.93
2024-01-18T03:51:07.258Z,5.97
2024-01-18T03:52:11.483Z,4.55
2024-01-18T03:53:13.889Z,8.25
2024-01-18T03:54:16.114Z,8.00
2024-01-18T03:55:18.401Z,6.85
2024-01-18T03:56:20.671Z,7.07
2024-01-18T03:57:22.987Z,7.90
2024-01-18T03:58:25.236Z,7.00
2024-01-18T03:59:27.540Z,8.50
2024-01-18T04:00:29.849Z,7.93
2024-01-18T04:01:35.663Z,7.15
2024-01-18T04:02:38.363Z,6.82
2024-01-18T04:03:43.541Z,6.00
2024-01-18T04:04:45.970Z,6.50
2024-01-18T04:05:48.387Z,8.35
2024-01-18T04:06:50.657Z,5.90
2024-01-18T04:07:53.123Z,5.60
2024-01-18T04:08:55.372Z,6.47
2024-01-18T04:09:57.864Z,6.55
2024-01-18T04:11:00.231Z,6.38
2024-01-18T04:12:02.541Z,6.10
2024-01-18T04:13:04.861Z,6.10
2024-01-18T04:14:07.095Z,7.78
2024-01-18T04:15:10.261Z,7.68
2024-01-18T04:16:12.459Z,7.30
2024-01-18T04:17:14.718Z,7.63
2024-01-18T04:18:17.175Z,9.13
2024-01-18T04:19:19.812Z,8.10
2024-01-18T04:20:27.437Z,7.93
2024-01-18T04:21:30.020Z,8.45
2024-01-18T04:22:32.524Z,8.05
2024-01-18T04:23:34.813Z,8.98
2024-01-18T04:24:37.168Z,9.10
2024-01-18T04:25:39.442Z,8.82
2024-01-18T04:26:41.972Z,11.68
2024-01-18T04:27:44.336Z,9.02
2024-01-18T04:28:46.664Z,10.23
2024-01-18T04:29:48.868Z,8.90
2024-01-18T04:30:51.235Z,9.10
2024-01-18T04:31:53.842Z,11.25
2024-01-18T04:32:56.143Z,11.43
2024-01-18T04:33:58.461Z,10.95
2024-01-18T04:35:00.818Z,10.10
2024-01-18T04:36:03.764Z,10.20
2024-01-18T04:37:05.978Z,10.27
2024-01-18T04:38:08.278Z,10.95
2024-01-18T04:39:10.673Z,11.02
2024-01-18T04:40:13.475Z,12.13
2024-01-18T04:41:16.359Z,15.80
2024-01-18T04:42:18.675Z,12.38
2024-01-18T04:43:21.066Z,11.27
2024-01-18T04:44:23.302Z,12.43
2024-01-18T04:45:26.032Z,12.05
2024-01-18T04:46:28.410Z,11.60
2024-01-18T04:47:30.782Z,12.50
2024-01-18T04:48:33.208Z,13.25
2024-01-18T04:49:35.709Z,11.68
2024-01-18T04:50:37.909Z,12.93
2024-01-18T04:51:40.515Z,16.27
2024-01-18T04:52:43.335Z,12.00
2024-01-18T04:53:45.689Z,10.88
2024-01-18T04:54:47.920Z,11.68
2024-01-18T04:55:50.829Z,11.48
2024-01-18T04:56:53.258Z,10.98
2024-01-18T04:57:55.871Z,10.02
2024-01-18T04:58:58.482Z,9.32
2024-01-18T05:00:00.898Z,8.75
2024-01-18T05:01:03.390Z,10.55
2024-01-18T05:02:05.701Z,10.05
2024-01-18T05:03:08.546Z,10.82
2024-01-18T05:04:10.933Z,10.02
2024-01-18T05:05:13.338Z,10.50
2024-01-18T05:06:15.869Z,10.80
2024-01-18T05:07:18.405Z,9.65
2024-01-18T05:08:21.580Z,9.45
2024-01-18T05:09:23.912Z,9.25
2024-01-18T05:10:26.311Z,8.40
2024-01-18T05:11:28.752Z,9.02
2024-01-18T05:12:31.529Z,8.65
2024-01-18T05:13:33.765Z,7.95
2024-01-18T05:14:35.997Z,8.63
2024-01-18T05:15:38.221Z,8.50
2024-01-18T05:16:41.476Z,8.77
2024-01-18T05:17:45.329Z,7.95
2024-01-18T05:18:47.801Z,10.95
2024-01-18T05:19:50.011Z,7.45
2024-01-18T05:20:52.214Z,7.25
2024-01-18T05:21:55.964Z,6.65
2024-01-18T05:22:58.315Z,6.60
2024-01-18T05:24:00.647Z,4.78
2024-01-18T05:25:03.555Z,5.30
2024-01-18T05:26:06.211Z,7.90
2024-01-18T05:27:08.958Z,8.20
2024-01-18T05:28:13.393Z,6.03
2024-01-18T05:29:15.732Z,5.75
2024-01-18T05:30:18.061Z,5.15
2024-01-18T05:31:20.305Z,5.32
2024-01-18T05:32:22.866Z,5.28
2024-01-18T05:33:25.229Z,5.57
2024-01-18T05:34:27.934Z,5.15
2024-01-18T05:35:30.489Z,5.05
2024-01-18T05:36:32.761Z,5.10
2024-01-18T05:37:35.032Z,5.32
2024-01-18T05:38:41.416Z,5.03
2024-01-18T05:39:45.555Z,4.97
2024-01-18T05:40:47.812Z,4.90
2024-01-18T05:41:50.048Z,4.90
2024-01-18T05:42:52.814Z,4.68
2024-01-18T05:43:55.169Z,5.07
2024-01-18T05:44:57.401Z,5.35
2024-01-18T05:45:59.706Z,5.55
2024-01-18T05:47:02.497Z,5.30
2024-01-18T05:48:05.628Z,5.85
2024-01-18T05:49:08.462Z,5.10
2024-01-18T05:50:11.542Z,6.35
2024-01-18T05:51:13.904Z,6.53
2024-01-18T05:52:16.814Z,6.78
2024-01-18T05:53:19.074Z,7.95
2024-01-18T05:54:21.428Z,6.80
2024-01-18T05:55:23.760Z,7.75
2024-01-18T05:56:27.270Z,16.58
2024-01-18T05:57:29.525Z,19.95
2024-01-18T05:58:32.723Z,22.75
2024-01-18T05:59:36.336Z,17.67
2024-01-18T06:00:38.729Z,28.27
2024-01-18T06:01:41.583Z,22.70
2024-01-18T06:02:43.896Z,18.23
2024-01-18T06:03:46.343Z,8.70
2024-01-18T06:04:48.788Z,10.40
2024-01-18T06:05:51.220Z,12.57
2024-01-18T06:06:53.829Z,8.65
2024-01-18T06:07:56.127Z,9.15
2024-01-18T06:08:58.467Z,8.50
2024-01-18T06:10:00.901Z,11.68
2024-01-18T06:11:03.788Z,12.57
2024-01-18T06:12:07.939Z,6.88
2024-01-18T06:13:11.061Z,8.88
2024-01-18T06:14:14.147Z,7.65
2024-01-18T06:15:16.542Z,9.05
2024-01-18T06:16:18.882Z,6.97
2024-01-18T06:17:21.528Z,6.25
2024-01-18T06:18:24.788Z,6.28
2024-01-18T06:19:27.428Z,5.40
2024-01-18T06:20:29.708Z,5.35
2024-01-18T06:21:33.631Z,4.82
2024-01-18T06:22:36.843Z,5.60
2024-01-18T06:23:41.185Z,6.28
2024-01-18T06:24:43.687Z,6.95
2024-01-18T06:25:46.115Z,5.30
2024-01-18T06:26:49.886Z,4.75
2024-01-18T06:27:52.345Z,4.57
2024-01-18T06:28:54.641Z,5.25
2024-01-18T06:29:57.119Z,5.03
2024-01-18T06:31:00.344Z,5.53
2024-01-18T06:32:05.403Z,5.18
2024-01-18T06:33:09.215Z,5.07
2024-01-18T06:34:11.937Z,5.15
2024-01-18T06:35:14.296Z,5.00
2024-01-18T06:36:16.660Z,5.47
2024-01-18T06:37:18.963Z,5.20
2024-01-18T06:38:24.367Z,5.25
2024-01-18T06:39:26.741Z,4.95
2024-01-18T06:40:28.988Z,5.15
2024-01-18T06:41:31.382Z,5.38
2024-01-18T06:42:33.856Z,5.38
2024-01-18T06:43:39.316Z,4.93
2024-01-18T06:44:46.009Z,5.82
2024-01-18T06:45:55.523Z,5.35
2024-01-18T06:46:57.820Z,6.30
2024-01-18T06:48:00.259Z,5.68
2024-01-18T06:49:02.697Z,5.13
2024-01-18T06:50:05.246Z,5.30
2024-01-18T06:51:07.618Z,5.55
2024-01-18T06:52:09.857Z,4.93
2024-01-18T06:53:12.229Z,5.20
2024-01-18T06:54:19.060Z,5.70
2024-01-18T06:55:22.188Z,7.10
2024-01-18T06:56:25.376Z,6.55
2024-01-18T06:57:27.685Z,6.82
2024-01-18T06:58:29.975Z,6.65
2024-01-18T06:59:32.188Z,7.40
2024-01-18T07:00:34.853Z,8.23
2024-01-18T07:01:37.275Z,8.52
2024-01-18T07:02:39.541Z,9.77
2024-01-18T07:03:43.437Z,8.05
2024-01-18T07:04:46.653Z,8.40
2024-01-18T07:05:49.975Z,8.93
2024-01-18T07:06:52.332Z,10.57
2024-01-18T07:07:55.384Z,9.73
2024-01-18T07:08:58.716Z,8.80
2024-01-18T07:10:00.994Z,7.70
2024-01-18T07:11:03.237Z,7.00
2024-01-18T07:12:05.856Z,7.38
2024-01-18T07:13:08.168Z,7.03
2024-01-18T07:14:10.428Z,6.70
2024-01-18T07:15:12.937Z,6.75
2024-01-18T07:16:15.548Z,7.80
2024-01-18T07:17:18.113Z,7.88
2024-01-18T07:18:20.446Z,6.78
2024-01-18T07:19:22.758Z,6.53
2024-01-18T07:20:25.254Z,6.88
2024-01-18T07:21:27.497Z,6.10
2024-01-18T07:22:29.755Z,5.93
2024-01-18T07:23:32.243Z,7.00
2024-01-18T07:24:34.894Z,8.45
2024-01-18T07:25:37.205Z,7.80
2024-01-18T07:26:40.525Z,6.95
2024-01-18T07:27:42.795Z,6.97
2024-01-18T07:28:45.112Z,7.13
2024-01-18T07:29:50.265Z,7.82
2024-01-18T07:30:52.597Z,6.57
2024-01-18T07:31:54.965Z,6.47
2024-01-18T07:32:57.244Z,5.90
2024-01-18T07:33:59.593Z,5.88
2024-01-18T07:35:02.205Z,6.20
2024-01-18T07:36:04.969Z,7.57
2024-01-18T07:37:10.736Z,6.45
2024-01-18T07:38:14.801Z,6.53
2024-01-18T07:39:17.141Z,6.40
2024-01-18T07:40:20.303Z,6.78
2024-01-18T07:41:22.535Z,6.38
2024-01-18T07:42:24.883Z,7.07
2024-01-18T07:43:27.122Z,6.75
2024-01-18T07:44:31.875Z,6.28
2024-01-18T07:45:34.761Z,6.05
2024-01-18T07:46:37.389Z,6.40
2024-01-18T07:47:39.878Z,6.43
2024-01-18T07:48:42.270Z,5.90
2024-01-18T07:49:49.541Z,6.80
2024-01-18T07:50:52.771Z,9.25
2024-01-18T07:51:55.018Z,9.35
2024-01-18T07:52:57.542Z,8.25
2024-01-18T07:53:59.886Z,8.02
2024-01-18T07:55:02.266Z,10.38
2024-01-18T07:56:04.724Z,11.65
2024-01-18T07:57:07.037Z,9.77
2024-01-18T07:58:09.445Z,11.57
2024-01-18T07:59:12.129Z,9.98
2024-01-18T08:00:14.903Z,10.50
2024-01-18T08:01:18.382Z,8.45
2024-01-18T08:02:20.678Z,8.93
2024-01-18T08:03:23.150Z,6.30
2024-01-18T08:04:26.707Z,5.40
2024-01-18T08:05:29.327Z,6.45
2024-01-18T08:06:32.326Z,6.90
2024-01-18T08:07:34.927Z,6.45
2024-01-18T08:08:37.711Z,6.50
2024-01-18T08:09:40.061Z,6.05
2024-01-18T08:10:42.376Z,6.55
2024-01-18T08:11:44.604Z,5.45
2024-01-18T08:12:48.856Z,5.88
2024-01-18T08:13:52.858Z,6.97
2024-01-18T08:14:55.067Z,6.70
2024-01-18T08:15:58.302Z,6.40
2024-01-18T08:17:00.631Z,6.40
2024-01-18T08:18:02.942Z,6.72
2024-01-18T08:19:05.539Z,7.68
2024-01-18T08:20:17.486Z,7.03
2024-01-18T08:21:19.857Z,7.10
2024-01-18T08:22:22.181Z,6.70
2024-01-18T08:23:24.621Z,7.00
2024-01-18T08:24:26.902Z,6.53
2024-01-18T08:25:29.118Z,6.43
2024-01-18T08:26:31.339Z,6.07
2024-01-18T08:27:33.612Z,6.72
2024-01-18T08:28:36.011Z,5.95
2024-01-18T08:29:39.114Z,6.18
2024-01-18T08:30:41.723Z,6.72
2024-01-18T08:31:44.061Z,6.70
2024-01-18T08:32:46.590Z,6.50
2024-01-18T08:33:48.935Z,6.32
2024-01-18T08:34:51.239Z,5.95
2024-01-18T08:35:53.560Z,6.15
2024-01-18T08:36:55.787Z,5.75
2024-01-18T08:37:58.099Z,6.70
2024-01-18T08:39:01.674Z,6.80
2024-01-18T08:40:04.196Z,6.57
2024-01-18T08:41:06.417Z,6.82
2024-01-18T08:42:09.521Z,6.53
2024-01-18T08:43:11.761Z,5.93
2024-01-18T08:44:14.163Z,6.78
2024-01-18T08:45:16.792Z,6.13
2024-01-18T08:46:19.201Z,5.97
2024-01-18T08:47:23.173Z,5.90
2024-01-18T08:48:25.501Z,5.10
2024-01-18T08:49:27.968Z,5.55
2024-01-18T08:50:30.298Z,4.82
2024-01-18T08:51:32.543Z,5.22
2024-01-18T08:52:34.930Z,4.75
2024-01-18T08:53:37.212Z,4.95
2024-01-18T08:54:39.621Z,5.13
2024-01-18T08:55:42.742Z,5.00
2024-01-18T08:56:44.923Z,5.10
2024-01-18T08:57:48.268Z,4.70
2024-01-18T08:58:50.588Z,5.15
2024-01-18T08:59:52.845Z,4.97
2024-01-18T09:00:55.178Z,5.50
2024-01-18T09:02:01.944Z,5.43
2024-01-18T09:03:08.973Z,4.55
2024-01-18T09:04:11.454Z,5.65
2024-01-18T09:05:14.210Z,5.00
2024-01-18T09:06:16.468Z,4.80
2024-01-18T09:07:18.772Z,5.40
2024-01-18T09:08:21.266Z,4.60
2024-01-18T09:09:23.517Z,4.53
2024-01-18T09:10:25.748Z,5.10
2024-01-18T09:11:28.037Z,5.50
2024-01-18T09:12:30.484Z,5.55
2024-01-18T09:13:32.790Z,5.07
2024-01-18T09:14:35.167Z,5.55
2024-01-18T09:15:37.490Z,5.10
2024-01-18T09:16:39.696Z,5.03
2024-01-18T09:17:42.299Z,5.43
2024-01-18T09:18:56.361Z,5.30
2024-01-18T09:20:08.082Z,5.78
2024-01-18T09:21:10.446Z,5.63
2024-01-18T09:22:12.746Z,5.43
2024-01-18T09:23:15.030Z,5.53
2024-01-18T09:24:17.578Z,6.13
2024-01-18T09:25:20.578Z,5.45
2024-01-18T09:26:22.812Z,5.90
2024-01-18T09:27:25.093Z,6.05
2024-01-18T09:28:28.900Z,5.57
2024-01-18T09:29:31.238Z,6.40
2024-01-18T09:30:33.453Z,6.35
2024-01-18T09:31:41.468Z,6.47
2024-01-18T09:32:46.381Z,5.90
2024-01-18T09:33:48.914Z,6.13
2024-01-18T09:34:51.195Z,5.72
2024-01-18T09:35:53.482Z,6.55
2024-01-18T09:36:55.847Z,6.22
2024-01-18T09:37:58.197Z,6.32
2024-01-18T09:39:00.459Z,5.72
2024-01-18T09:40:02.928Z,4.70
2024-01-18T09:41:08.857Z,5.60
2024-01-18T09:42:16.639Z,5.15
2024-01-18T09:43:20.736Z,4.78
2024-01-18T09:44:31.858Z,5.60
2024-01-18T09:45:38.439Z,4.65
2024-01-18T09:46:42.071Z,5.50
2024-01-18T09:47:45.840Z,5.55
2024-01-18T09:48:48.253Z,4.60
2024-01-18T09:49:52.327Z,5.53
2024-01-18T09:50:56.575Z,5.75
2024-01-18T09:51:59.483Z,5.80
2024-01-18T09:53:01.805Z,5.63
2024-01-18T09:54:04.085Z,5.25
2024-01-18T09:55:09.417Z,5.93
2024-01-18T09:56:21.745Z,5.43
2024-01-18T09:57:31.263Z,5.43
2024-01-18T09:58:33.789Z,5.40
2024-01-18T09:59:37.815Z,5.22
2024-01-18T10:00:58.996Z,5.32
2024-01-18T10:02:02.919Z,5.18
2024-01-18T10:03:05.457Z,5.18
2024-01-18T10:04:11.659Z,4.88
2024-01-18T10:05:14.353Z,5.13
2024-01-18T10:06:18.726Z,5.50
2024-01-18T10:07:22.134Z,4.88
2024-01-18T10:08:24.680Z,5.80
2024-01-18T10:09:27.203Z,5.43
2024-01-18T10:10:29.503Z,4.60
2024-01-18T10:11:31.776Z,5.05
2024-01-18T10:12:34.068Z,5.03
2024-01-18T10:13:56.621Z,5.55
2024-01-18T10:14:59.260Z,5.00
2024-01-18T10:16:01.502Z,5.22
2024-01-18T10:17:03.781Z,6.10
2024-01-18T10:18:07.209Z,6.35
2024-01-18T10:19:18.528Z,22.65
2024-01-18T10:20:23.646Z,14.77
2024-01-18T10:21:26.035Z,5.95
2024-01-18T10:22:29.830Z,11.77
2024-01-18T10:23:32.596Z,6.07
2024-01-18T10:24:40.819Z,7.85
2024-01-18T10:25:45.680Z,6.95
2024-01-18T10:26:47.891Z,6.57
2024-01-18T10:27:53.034Z,6.55
2024-01-18T10:28:56.653Z,5.70
2024-01-18T10:29:58.877Z,8.05
2024-01-18T10:31:02.243Z,7.60
2024-01-18T10:32:05.614Z,6.22
2024-01-18T10:33:09.716Z,5.60
2024-01-18T10:34:12.452Z,5.60
2024-01-18T10:35:25.919Z,6.13
2024-01-18T10:36:28.326Z,7.00
2024-01-18T10:37:30.513Z,6.55
2024-01-18T10:38:33.825Z,9.63
2024-01-18T10:39:43.246Z,8.82
2024-01-18T10:40:51.273Z,6.10
2024-01-18T10:41:53.602Z,6.30
2024-01-18T10:42:56.344Z,8.15
2024-01-18T10:43:58.699Z,6.32
2024-01-18T10:45:03.623Z,6.00
2024-01-18T10:46:06.121Z,6.32
2024-01-18T10:47:12.132Z,7.05
2024-01-18T10:48:14.529Z,7.35
2024-01-18T10:49:18.069Z,5.60
2024-01-18T10:50:20.596Z,5.53
2024-01-18T10:51:24.818Z,6.63
2024-01-18T10:52:27.206Z,5.05
2024-01-18T10:53:37.700Z,5.25
2024-01-18T10:54:46.802Z,5.95
2024-01-18T10:55:56.641Z,5.60
2024-01-18T10:57:00.925Z,5.85
2024-01-18T10:58:03.454Z,5.80
2024-01-18T10:59:07.422Z,7.80
2024-01-18T11:00:10.273Z,6.30
2024-01-18T11:01:12.673Z,6.25
2024-01-18T11:02:15.228Z,6.22
2024-01-18T11:03:18.468Z,7.18
2024-01-18T11:04:21.714Z,5.90
2024-01-18T11:05:24.656Z,5.90
2024-01-18T11:06:30.172Z,6.22
2024-01-18T11:07:33.706Z,6.57
2024-01-18T11:08:37.298Z,5.63
2024-01-18T11:09:40.740Z,6.10
2024-01-18T11:10:46.010Z,5.82
2024-01-18T11:11:48.476Z,5.95
2024-01-18T11:12:51.238Z,5.55
2024-01-18T11:13:53.658Z,5.60
2024-01-18T11:14:56.694Z,6.63
2024-01-18T11:15:59.021Z,6.03
2024-01-18T11:17:13.537Z,4.90
2024-01-18T11:18:16.107Z,5.93
2024-01-18T11:19:42.313Z,5.43
2024-01-18T11:20:59.872Z,5.82
2024-01-18T11:22:02.221Z,5.93
2024-01-18T11:23:04.610Z,6.43
2024-01-18T11:24:08.886Z,5.80
2024-01-18T11:25:13.601Z,5.47
2024-01-18T11:26:22.012Z,5.95
2024-01-18T11:27:24.943Z,6.00
2024-01-18T11:28:28.388Z,6.30
2024-01-18T11:29:36.069Z,5.78
2024-01-18T11:30:41.898Z,6.13
2024-01-18T11:31:50.987Z,6.78
2024-01-18T11:32:55.095Z,7.07
2024-01-18T11:33:57.837Z,5.90
2024-01-18T11:35:14.419Z,7.03
2024-01-18T11:36:17.066Z,6.55
2024-01-18T11:37:25.731Z,6.30
2024-01-18T11:38:34.156Z,6.45
2024-01-18T11:39:53.891Z,7.10
2024-01-18T11:41:20.837Z,6.65
2024-01-18T11:42:28.329Z,7.20
2024-01-18T11:43:52.403Z,7.07
2024-01-18T11:45:01.404Z,7.13
2024-01-18T11:46:03.881Z,7.00
2024-01-18T11:47:07.492Z,6.93
2024-01-18T11:48:09.981Z,7.40
2024-01-18T11:49:12.488Z,7.15
2024-01-18T11:50:15.144Z,7.55
2024-01-18T11:51:17.446Z,8.75
2024-01-18T11:52:22.897Z,9.85
2024-01-18T11:53:25.501Z,7.72
2024-01-18T11:54:27.956Z,7.38
2024-01-18T11:55:31.805Z,8.02
2024-01-18T11:56:37.769Z,7.97
2024-01-18T11:57:40.154Z,8.55
2024-01-18T11:58:42.464Z,8.43
2024-01-18T11:59:48.329Z,7.75
2024-01-18T12:00:50.740Z,7.50
2024-01-18T12:01:55.577Z,7.78
2024-01-18T12:02:57.843Z,8.73
2024-01-18T12:04:00.322Z,7.70
2024-01-18T12:05:05.645Z,7.95
2024-01-18T12:06:08.115Z,9.57
2024-01-18T12:07:12.109Z,8.57
2024-01-18T12:08:14.958Z,7.75
2024-01-18T12:09:17.294Z,8.73
2024-01-18T12:10:19.957Z,9.02
2024-01-18T12:11:22.207Z,9.68
2024-01-18T12:12:25.183Z,7.63
2024-01-18T12:13:29.142Z,8.73
2024-01-18T12:14:33.581Z,8.25
2024-01-18T12:15:35.842Z,8.88
2024-01-18T12:16:38.111Z,8.75
2024-01-18T12:17:40.323Z,9.40
2024-01-18T12:18:44.286Z,8.40
2024-01-18T12:19:48.176Z,8.38
2024-01-18T12:20:50.488Z,8.63
2024-01-18T12:21:53.004Z,9.43
2024-01-18T12:22:55.405Z,9.07
2024-01-18T12:23:58.200Z,8.95
2024-01-18T12:25:03.419Z,9.75
2024-01-18T12:26:07.892Z,8.63
2024-01-18T12:27:10.804Z,9.68
2024-01-18T12:28:13.143Z,9.73
2024-01-18T12:29:15.410Z,9.45
2024-01-18T12:30:17.658Z,9.60
2024-01-18T12:31:21.388Z,9.52
2024-01-18T12:32:24.284Z,9.32
2024-01-18T12:33:26.847Z,9.60
2024-01-18T12:34:31.301Z,9.90
2024-01-18T12:35:38.695Z,9.73
2024-01-18T12:36:41.108Z,10.05
2024-01-18T12:37:43.374Z,10.35
2024-01-18T12:38:45.571Z,10.35
2024-01-18T12:39:48.054Z,10.43
2024-01-18T12:40:53.450Z,10.82
2024-01-18T12:41:56.551Z,10.38
2024-01-18T12:43:05.165Z,10.02
2024-01-18T12:44:12.963Z,10.32
2024-01-18T12:45:15.319Z,10.00
2024-01-18T12:46:20.199Z,10.63
2024-01-18T12:47:22.782Z,9.88
2024-01-18T12:48:25.588Z,10.15
2024-01-18T12:49:32.009Z,9.25
2024-01-18T12:50:34.588Z,9.77
2024-01-18T12:51:37.258Z,10.07
2024-01-18T12:52:39.629Z,10.18
2024-01-18T12:53:46.512Z,9.82
2024-01-18T12:54:48.828Z,10.38
2024-01-18T12:55:51.416Z,10.43
2024-01-18T12:57:07.344Z,10.20
2024-01-18T12:58:13.928Z,9.57
2024-01-18T12:59:17.319Z,9.07
2024-01-18T13:00:20.939Z,10.20
2024-01-18T13:01:30.885Z,9.88
2024-01-18T13:02:33.136Z,10.35
2024-01-18T13:03:35.484Z,10.88
2024-01-18T13:04:37.826Z,11.27
2024-01-18T13:05:47.472Z,10.02
2024-01-18T13:06:57.158Z,9.48
2024-01-18T13:08:04.614Z,9.20
2024-01-18T13:09:08.667Z,11.23
2024-01-18T13:10:13.375Z,9.50
2024-01-18T13:11:15.713Z,9.43
2024-01-18T13:12:18.302Z,10.18
2024-01-18T13:13:20.520Z,9.57
2024-01-18T13:14:23.009Z,11.07
2024-01-18T13:15:25.405Z,10.63
2024-01-18T13:16:30.629Z,9.73
2024-01-18T13:17:33.202Z,14.82
2024-01-18T13:18:36.793Z,10.65
2024-01-18T13:19:40.573Z,10.13
2024-01-18T13:20:45.338Z,9.20
2024-01-18T13:21:48.490Z,10.68
2024-01-18T13:22:50.707Z,9.30
2024-01-18T13:23:52.988Z,10.15
2024-01-18T13:24:55.291Z,9.93
2024-01-18T13:25:57.662Z,9.73
2024-01-18T13:27:02.076Z,9.65
2024-01-18T13:28:06.211Z,10.65
2024-01-18T13:29:09.388Z,10.40
2024-01-18T13:30:13.260Z,9.75
2024-01-18T13:31:15.717Z,10.15
2024-01-18T13:32:17.990Z,9.77
2024-01-18T13:33:20.555Z,9.88
2024-01-18T13:34:23.060Z,9.63
2024-01-18T13:35:25.552Z,10.27
2024-01-18T13:36:28.076Z,10.02
2024-01-18T13:37:31.464Z,9.80
2024-01-18T13:38:35.236Z,11.00
2024-01-18T13:39:37.625Z,8.95
2024-01-18T13:40:40.011Z,9.90
2024-01-18T13:41:42.310Z,10.60
2024-01-18T13:42:44.627Z,9.13
2024-01-18T13:43:49.132Z,10.05
2024-01-18T13:44:51.426Z,10.25
2024-01-18T13:45:54.524Z,10.55
2024-01-18T13:46:56.837Z,10.77
2024-01-18T13:47:59.188Z,11.20
2024-01-18T13:49:01.567Z,10.25
2024-01-18T13:50:04.243Z,9.90
2024-01-18T13:51:06.616Z,10.90
2024-01-18T13:52:09.013Z,9.90
2024-01-18T13:53:15.265Z,10.68
2024-01-18T13:54:17.644Z,10.57
2024-01-18T13:55:20.357Z,10.52
2024-01-18T13:56:24.608Z,10.95
2024-01-18T13:57:26.987Z,10.80
2024-01-18T13:58:29.471Z,10.35
2024-01-18T13:59:31.981Z,11.43
2024-01-18T14:00:34.385Z,10.27